createdAt,value
2017-10-21T09:51:26.381Z,857.79
2017-10-21T09:52:26.321Z,857.99
2017-10-21T09:53:26.326Z,858.29
2017-10-21T09:54:26.302Z,857.91
2017-10-21T09:55:26.297Z,858.91
2017-10-21T09:56:26.287Z,858.94
2017-10-21T09:57:26.330Z,858.90
2017-10-21T09:58:26.276Z,858.34
2017-10-21T09:59:26.270Z,857.97
2017-10-21T10:00:26.271Z,858.77
2017-10-21T10:01:26.269Z,858.02
2017-10-21T10:02:26.257Z,858.86
2017-10-21T10:03:26.259Z,859.34
2017-10-21T10:04:26.253Z,859.14
2017-10-21T10:05:26.251Z,859.85
2017-10-21T10:06:26.252Z,858.96
2017-10-21T10:07:26.245Z,858.71
2017-10-21T10:08:26.245Z,858.31
2017-10-21T10:09:26.241Z,858.02
2017-10-21T10:10:26.237Z,858.31
2017-10-21T10:11:26.240Z,857.98
2017-10-21T10:12:26.234Z,857.83
2017-10-21T10:13:26.233Z,857.80
2017-10-21T10:14:26.231Z,857.77
2017-10-21T10:15:26.281Z,857.78
2017-10-21T10:16:26.224Z,857.77
2017-10-21T10:17:26.228Z,857.76
2017-10-21T10:18:26.217Z,857.69
2017-10-21T10:19:26.216Z,857.71
2017-10-21T10:20:26.214Z,857.70
2017-10-21T10:21:26.210Z,857.67
2017-10-21T10:22:26.208Z,857.76
2017-10-21T10:23:26.203Z,857.71
2017-10-21T10:24:26.200Z,857.68
2017-10-21T10:25:26.196Z,857.66
2017-10-21T10:26:26.198Z,857.58
2017-10-21T10:27:26.240Z,857.62
2017-10-21T10:28:26.186Z,857.59
2017-10-21T10:29:26.190Z,857.62
2017-10-21T10:30:26.180Z,857.58
2017-10-21T10:31:26.175Z,857.58
2017-10-21T10:32:26.172Z,857.60
2017-10-21T10:33:26.173Z,857.61
2017-10-21T10:34:26.164Z,857.60
2017-10-21T10:35:26.159Z,857.60
2017-10-21T10:36:26.155Z,857.59
2017-10-21T10:37:26.151Z,857.54
2017-10-21T10:38:26.152Z,857.53
2017-10-21T10:39:26.146Z,857.53
2017-10-21T10:40:26.138Z,857.53
2017-10-21T10:41:26.132Z,857.55
2017-10-21T10:42:26.128Z,857.49
2017-10-21T10:43:26.123Z,857.50
2017-10-21T10:44:26.121Z,857.48
2017-10-21T10:45:26.120Z,857.46
2017-10-21T10:46:26.112Z,857.45
2017-10-21T10:47:26.105Z,857.41
2017-10-21T10:48:26.101Z,857.46
2017-10-21T10:49:26.095Z,857.41
2017-10-21T10:50:26.091Z,857.37
2017-10-21T10:51:26.087Z,857.38
2017-10-21T10:52:26.084Z,857.32
2017-10-21T10:53:26.077Z,857.34
2017-10-21T10:54:26.073Z,857.35
2017-10-21T10:55:26.078Z,857.32
2017-10-21T10:56:26.062Z,857.33
2017-10-21T10:57:26.058Z,857.34
2017-10-21T10:58:26.054Z,857.32
2017-10-21T10:59:26.048Z,857.36
2017-10-21T11:00:26.043Z,857.33
2017-10-21T11:01:26.040Z,857.31
2017-10-21T11:02:26.034Z,857.32
2017-10-21T11:03:26.079Z,857.31
2017-10-21T11:04:26.028Z,857.35
2017-10-21T11:05:26.024Z,857.33
2017-10-21T11:06:26.014Z,857.29
2017-10-21T11:07:26.009Z,857.26
2017-10-21T11:08:26.003Z,857.22
2017-10-21T11:09:26.003Z,857.17
2017-10-21T11:10:25.992Z,857.21
2017-10-21T11:11:25.986Z,857.19
2017-10-21T11:12:25.984Z,857.15
2017-10-21T11:13:25.982Z,857.18
2017-10-21T11:14:25.970Z,857.19
2017-10-21T11:15:25.965Z,857.15
2017-10-21T11:16:25.960Z,857.16
2017-10-21T11:17:25.955Z,857.09
2017-10-21T11:18:25.948Z,857.11
2017-10-21T11:19:25.942Z,857.08
2017-10-21T11:20:25.942Z,857.05
2017-10-21T11:21:25.984Z,857.06
2017-10-21T11:22:25.932Z,856.99
2017-10-21T11:23:25.921Z,856.99
2017-10-21T11:24:25.915Z,856.96
2017-10-21T11:25:25.909Z,856.95
2017-10-21T11:26:25.909Z,856.98
2017-10-21T11:27:25.950Z,856.97
2017-10-21T11:28:25.893Z,857.00
2017-10-21T11:29:25.891Z,856.98
2017-10-21T11:30:25.881Z,856.97
2017-10-21T11:31:25.876Z,856.96
2017-10-21T11:32:25.871Z,856.97
2017-10-21T11:33:25.913Z,856.95
2017-10-21T11:34:25.864Z,856.94
2017-10-21T11:35:25.862Z,856.93
2017-10-21T11:36:25.847Z,856.89
2017-10-21T11:37:25.841Z,856.89
2017-10-21T11:38:25.834Z,856.90
2017-10-21T11:39:25.829Z,856.90
2017-10-21T11:40:25.828Z,856.88
2017-10-21T11:41:25.817Z,856.87
2017-10-21T11:42:25.816Z,856.85
2017-10-21T11:43:25.804Z,856.80
2017-10-21T11:44:25.799Z,856.79
2017-10-21T11:45:25.843Z,856.79
2017-10-21T11:46:25.788Z,856.81
2017-10-21T11:47:25.788Z,856.77
2017-10-21T11:48:25.775Z,856.81
2017-10-21T11:49:25.770Z,856.80
2017-10-21T11:50:25.764Z,856.82
2017-10-21T11:51:25.809Z,856.77
2017-10-21T11:52:25.752Z,856.79
2017-10-21T11:53:25.747Z,856.79
2017-10-21T11:54:25.739Z,856.76
2017-10-21T11:55:25.739Z,856.78
2017-10-21T11:56:25.729Z,856.71
2017-10-21T11:57:25.723Z,856.68
2017-10-21T11:58:25.720Z,856.70
2017-10-21T11:59:25.714Z,856.70
2017-10-21T12:00:25.708Z,856.67
2017-10-21T12:01:25.698Z,856.69
2017-10-21T12:02:25.692Z,856.65
2017-10-21T12:03:25.691Z,856.67
2017-10-21T12:04:25.680Z,856.63
2017-10-21T12:05:25.673Z,856.65
2017-10-21T12:06:25.670Z,856.67
2017-10-21T12:07:25.673Z,856.66
2017-10-21T12:08:25.661Z,856.67
2017-10-21T12:09:25.699Z,856.65
2017-10-21T12:10:25.648Z,856.59
2017-10-21T12:11:25.643Z,856.60
2017-10-21T12:12:25.632Z,856.51
2017-10-21T12:13:25.627Z,856.49
2017-10-21T12:14:25.624Z,856.47
2017-10-21T12:15:25.614Z,856.46
2017-10-21T12:16:25.611Z,856.49
2017-10-21T12:17:25.602Z,856.51
2017-10-21T12:18:25.598Z,856.50
2017-10-21T12:19:25.591Z,856.49
2017-10-21T12:20:25.590Z,856.48
2017-10-21T12:21:25.579Z,856.45
2017-10-21T12:22:25.579Z,856.46
2017-10-21T12:23:25.568Z,856.41
2017-10-21T12:24:25.567Z,856.39
2017-10-21T12:25:25.556Z,856.44
2017-10-21T12:26:25.563Z,856.42
2017-10-21T12:27:25.550Z,856.44
2017-10-21T12:28:25.542Z,856.41
2017-10-21T12:29:25.562Z,856.41
2017-10-21T12:30:25.528Z,856.37
2017-10-21T12:31:25.528Z,856.40
2017-10-21T12:32:25.517Z,856.38
2017-10-21T12:33:25.518Z,856.31
2017-10-21T12:34:25.510Z,856.34
2017-10-21T12:35:25.506Z,856.35
2017-10-21T12:36:25.501Z,856.31
2017-10-21T12:37:25.489Z,856.33
2017-10-21T12:38:25.483Z,856.30
2017-10-21T12:39:25.479Z,856.31
2017-10-21T12:40:25.477Z,856.28
2017-10-21T12:41:25.478Z,856.30
2017-10-21T12:42:25.471Z,856.29
2017-10-21T12:43:25.455Z,856.27
2017-10-21T12:44:25.449Z,856.32
2017-10-21T12:45:25.450Z,856.32
2017-10-21T12:46:25.436Z,856.31
2017-10-21T12:47:25.432Z,856.29
2017-10-21T12:48:25.428Z,856.27
2017-10-21T12:49:25.425Z,856.27
2017-10-21T12:50:25.418Z,856.24
2017-10-21T12:51:25.409Z,856.22
2017-10-21T12:52:25.401Z,856.28
2017-10-21T12:53:25.402Z,856.26
2017-10-21T12:54:25.390Z,856.25
2017-10-21T12:55:25.390Z,856.22
2017-10-21T12:56:25.379Z,856.20
2017-10-21T12:57:25.375Z,856.16
2017-10-21T12:58:25.376Z,856.16
2017-10-21T12:59:25.361Z,856.17
2017-10-21T13:00:25.355Z,856.14
2017-10-21T13:01:25.349Z,856.13
2017-10-21T13:02:25.342Z,856.15
2017-10-21T13:03:25.337Z,856.11
2017-10-21T13:04:25.336Z,856.12
2017-10-21T13:05:25.323Z,856.14
2017-10-21T13:06:25.319Z,856.10
2017-10-21T13:07:25.310Z,856.09
2017-10-21T13:08:25.305Z,856.08
2017-10-21T13:09:25.354Z,856.12
2017-10-21T13:10:25.293Z,856.12
2017-10-21T13:11:25.285Z,856.14
2017-10-21T13:12:25.281Z,856.11
2017-10-21T13:13:25.274Z,856.11
2017-10-21T13:14:25.273Z,856.16
2017-10-21T13:15:25.263Z,856.11
2017-10-21T13:16:25.258Z,856.09
2017-10-21T13:17:25.253Z,856.06
2017-10-21T13:18:25.253Z,856.08
2017-10-21T13:19:25.237Z,856.05
2017-10-21T13:20:25.233Z,856.06
2017-10-21T13:21:25.226Z,856.06
2017-10-21T13:22:25.219Z,856.03
2017-10-21T13:23:25.215Z,856.02
2017-10-21T13:24:25.212Z,856.00
2017-10-21T13:25:25.206Z,855.99
2017-10-21T13:26:25.194Z,855.98
2017-10-21T13:27:25.193Z,855.97
2017-10-21T13:28:25.181Z,855.96
2017-10-21T13:29:25.175Z,856.02
2017-10-21T13:30:25.171Z,856.00
2017-10-21T13:31:25.167Z,856.03
2017-10-21T13:32:25.160Z,856.00
2017-10-21T13:33:25.150Z,856.01
2017-10-21T13:34:25.144Z,856.02
2017-10-21T13:35:25.137Z,855.99
2017-10-21T13:36:25.132Z,856.00
2017-10-21T13:37:25.124Z,856.03
2017-10-21T13:38:25.119Z,855.98
2017-10-21T13:39:25.111Z,855.93
2017-10-21T13:40:25.105Z,855.95
2017-10-21T13:41:25.096Z,855.94
2017-10-21T13:42:25.098Z,855.89
2017-10-21T13:43:25.086Z,855.90
2017-10-21T13:44:25.079Z,855.91
2017-10-21T13:45:25.072Z,855.90
2017-10-21T13:46:25.065Z,855.90
2017-10-21T13:47:25.061Z,855.92
2017-10-21T13:48:25.051Z,855.90
2017-10-21T13:49:25.047Z,855.93
2017-10-21T13:50:25.041Z,855.89
2017-10-21T13:51:25.034Z,855.89
2017-10-21T13:52:25.028Z,855.92
2017-10-21T13:53:25.020Z,855.89
2017-10-21T13:54:25.014Z,855.90
2017-10-21T13:55:25.006Z,855.85
2017-10-21T13:56:25.007Z,855.80
2017-10-21T13:57:24.994Z,855.81
2017-10-21T13:58:24.994Z,855.71
2017-10-21T13:59:24.980Z,855.76
2017-10-21T14:00:24.973Z,855.73
2017-10-21T14:01:24.967Z,855.76
2017-10-21T14:02:24.960Z,855.71
2017-10-21T14:03:24.953Z,855.77
2017-10-21T14:04:24.947Z,855.74
2017-10-21T14:05:24.941Z,855.71
2017-10-21T14:06:24.933Z,855.70
2017-10-21T14:07:24.930Z,855.69
2017-10-21T14:08:24.921Z,855.68
2017-10-21T14:09:24.914Z,855.67
2017-10-21T14:10:24.906Z,855.72
2017-10-21T14:11:24.898Z,855.72
2017-10-21T14:12:24.894Z,855.70
2017-10-21T14:13:24.885Z,855.75
2017-10-21T14:14:24.878Z,855.72
2017-10-21T14:15:24.878Z,855.74
2017-10-21T14:16:24.865Z,855.72
2017-10-21T14:17:24.862Z,855.73
2017-10-21T14:18:24.854Z,855.72
2017-10-21T14:19:24.846Z,855.70
2017-10-21T14:20:24.836Z,855.74
2017-10-21T14:21:24.832Z,855.73
2017-10-21T14:22:24.823Z,855.74
2017-10-21T14:23:24.817Z,855.77
2017-10-21T14:24:24.809Z,855.77
2017-10-21T14:25:24.803Z,855.77
2017-10-21T14:26:24.795Z,855.80
2017-10-21T14:27:24.794Z,855.78
2017-10-21T14:28:24.782Z,855.76
2017-10-21T14:29:24.775Z,855.79
2017-10-21T14:30:24.768Z,855.77
2017-10-21T14:31:24.760Z,855.78
2017-10-21T14:32:24.755Z,855.86
2017-10-21T14:33:24.749Z,855.84
2017-10-21T14:34:24.740Z,855.83
2017-10-21T14:35:24.733Z,855.85
2017-10-21T14:36:24.728Z,855.86
2017-10-21T14:37:24.719Z,855.82
2017-10-21T14:38:24.718Z,855.81
2017-10-21T14:39:24.714Z,855.80
2017-10-21T14:40:24.704Z,855.79
2017-10-21T14:41:24.696Z,855.82
2017-10-21T14:42:24.684Z,855.88
2017-10-21T14:43:24.677Z,855.89
2017-10-21T14:44:24.671Z,855.86
2017-10-21T14:45:24.669Z,855.86
2017-10-21T14:46:24.664Z,855.81
2017-10-21T14:47:24.654Z,855.81
2017-10-21T14:48:24.648Z,855.78
2017-10-21T14:49:24.634Z,855.78
2017-10-21T14:50:24.630Z,855.73
2017-10-21T14:51:24.623Z,855.75
2017-10-21T14:52:24.617Z,855.69
2017-10-21T14:53:24.604Z,855.70
2017-10-21T14:54:24.598Z,855.70
2017-10-21T14:55:24.596Z,855.73
2017-10-21T14:56:24.585Z,855.72
2017-10-21T14:57:24.582Z,855.73
2017-10-21T14:58:24.567Z,855.75
2017-10-21T14:59:24.560Z,855.75
2017-10-21T15:00:24.554Z,855.71
2017-10-21T15:01:24.553Z,855.73
2017-10-21T15:02:24.538Z,855.75
2017-10-21T15:03:24.533Z,855.74
2017-10-21T15:04:24.523Z,855.76
2017-10-21T15:05:24.517Z,855.76
2017-10-21T15:06:24.514Z,855.75
2017-10-21T15:07:24.508Z,855.76
2017-10-21T15:08:24.496Z,855.72
2017-10-21T15:09:24.494Z,855.72
2017-10-21T15:10:24.486Z,855.66
2017-10-21T15:11:24.474Z,855.62
2017-10-21T15:12:24.467Z,855.58
2017-10-21T15:13:24.462Z,855.58
2017-10-21T15:14:24.453Z,855.57
2017-10-21T15:15:24.452Z,855.57
2017-10-21T15:16:24.447Z,855.51
2017-10-21T15:17:24.433Z,855.59
2017-10-21T15:18:24.430Z,855.63
2017-10-21T15:19:24.417Z,855.61
2017-10-21T15:20:24.418Z,855.60
2017-10-21T15:21:24.418Z,855.63
2017-10-21T15:22:24.402Z,855.61
2017-10-21T15:23:24.393Z,855.60
2017-10-21T15:24:24.388Z,855.60
2017-10-21T15:25:24.378Z,855.60
2017-10-21T15:26:24.375Z,855.58
2017-10-21T15:27:24.362Z,855.62
2017-10-21T15:28:24.356Z,855.65
2017-10-21T15:29:24.349Z,855.67
2017-10-21T15:30:24.342Z,855.68
2017-10-21T15:31:24.334Z,855.69
2017-10-21T15:32:24.327Z,855.67
2017-10-21T15:33:24.320Z,855.65
2017-10-21T15:34:24.311Z,855.65
2017-10-21T15:35:24.305Z,855.64
2017-10-21T15:36:24.300Z,855.61
2017-10-21T15:37:24.294Z,855.60
2017-10-21T15:38:24.289Z,855.63
2017-10-21T15:39:24.291Z,855.60
2017-10-21T15:40:24.271Z,855.61
2017-10-21T15:41:24.265Z,855.63
2017-10-21T15:42:24.255Z,855.63
2017-10-21T15:43:24.255Z,855.60
2017-10-21T15:44:24.248Z,855.61
2017-10-21T15:45:24.235Z,855.63
2017-10-21T15:46:24.233Z,855.59
2017-10-21T15:47:24.221Z,855.59
2017-10-21T15:48:24.213Z,855.62
2017-10-21T15:49:24.208Z,855.57
2017-10-21T15:50:24.205Z,855.58
2017-10-21T15:51:24.198Z,855.58
2017-10-21T15:52:24.186Z,855.59
2017-10-21T15:53:24.181Z,855.60
2017-10-21T15:54:24.170Z,855.59
2017-10-21T15:55:24.164Z,855.58
2017-10-21T15:56:24.157Z,855.58
2017-10-21T15:57:24.148Z,855.59
2017-10-21T15:58:24.140Z,855.55
2017-10-21T15:59:24.139Z,855.54
2017-10-21T16:00:24.126Z,855.57
2017-10-21T16:01:24.119Z,855.55
2017-10-21T16:02:24.112Z,855.54
2017-10-21T16:03:24.102Z,855.53
2017-10-21T16:04:24.096Z,855.53
2017-10-21T16:05:24.088Z,855.55
2017-10-21T16:06:24.085Z,855.54
2017-10-21T16:07:24.070Z,855.54
2017-10-21T16:08:24.064Z,855.55
2017-10-21T16:09:24.059Z,855.53
2017-10-21T16:10:24.055Z,855.49
2017-10-21T16:11:24.054Z,855.50
2017-10-21T16:12:24.037Z,855.51
2017-10-21T16:13:24.032Z,855.50
2017-10-21T16:14:24.022Z,855.48
2017-10-21T16:15:24.009Z,855.48
2017-10-21T16:16:24.003Z,855.46
2017-10-21T16:17:23.999Z,855.48
2017-10-21T16:18:23.986Z,855.43
2017-10-21T16:19:23.984Z,855.44
2017-10-21T16:20:23.970Z,855.41
2017-10-21T16:21:23.969Z,855.40
2017-10-21T16:22:23.952Z,855.38
2017-10-21T16:23:23.943Z,855.40
2017-10-21T16:24:23.937Z,855.39
2017-10-21T16:25:23.926Z,855.40
2017-10-21T16:26:23.918Z,855.43
2017-10-21T16:27:23.912Z,855.42
2017-10-21T16:28:23.901Z,855.39
2017-10-21T16:29:23.900Z,855.44
2017-10-21T16:30:23.890Z,855.44
2017-10-21T16:31:23.878Z,855.48
2017-10-21T16:32:23.869Z,855.48
2017-10-21T16:33:23.860Z,855.48
2017-10-21T16:34:23.852Z,855.48
2017-10-21T16:35:23.848Z,855.52
2017-10-21T16:36:23.834Z,855.53
2017-10-21T16:37:23.833Z,855.58
2017-10-21T16:38:23.817Z,855.54
2017-10-21T16:39:23.812Z,855.52
2017-10-21T16:40:23.801Z,855.59
2017-10-21T16:41:23.790Z,855.56
2017-10-21T16:42:23.782Z,855.63
2017-10-21T16:43:23.774Z,855.64
2017-10-21T16:44:23.765Z,855.66
2017-10-21T16:45:23.755Z,855.64
2017-10-21T16:46:23.744Z,855.69
2017-10-21T16:47:23.738Z,855.66
2017-10-21T16:48:23.733Z,855.72
2017-10-21T16:49:23.723Z,855.72
2017-10-21T16:50:23.716Z,855.73
2017-10-21T16:51:23.706Z,855.75
2017-10-21T16:52:23.697Z,855.73
2017-10-21T16:53:23.684Z,855.73
2017-10-21T16:54:23.673Z,855.71
2017-10-21T16:55:23.671Z,855.73
2017-10-21T16:56:23.661Z,855.74
2017-10-21T16:57:23.651Z,855.78
2017-10-21T16:58:23.636Z,855.80
2017-10-21T16:59:23.634Z,855.75
2017-10-21T17:00:23.620Z,855.77
2017-10-21T17:01:23.617Z,855.74
2017-10-21T17:02:23.600Z,855.68
2017-10-21T17:03:23.598Z,855.72
2017-10-21T17:04:23.583Z,855.69
2017-10-21T17:05:23.581Z,855.73
2017-10-21T17:06:23.564Z,855.72
2017-10-21T17:07:23.560Z,855.78
2017-10-21T17:08:23.551Z,855.79
2017-10-21T17:09:23.562Z,855.79
2017-10-21T17:10:23.533Z,855.79
2017-10-21T17:11:23.520Z,855.78
2017-10-21T17:12:23.525Z,855.77
2017-10-21T17:13:23.505Z,855.75
2017-10-21T17:14:23.495Z,855.79
2017-10-21T17:15:23.483Z,855.82
2017-10-21T17:16:23.481Z,855.78
2017-10-21T17:17:23.465Z,855.75
2017-10-21T17:18:23.453Z,855.81
2017-10-21T17:19:23.446Z,855.78
2017-10-21T17:20:23.434Z,855.80
2017-10-21T17:21:23.428Z,855.75
2017-10-21T17:22:23.415Z,855.76
2017-10-21T17:23:23.408Z,855.75
2017-10-21T17:24:23.397Z,855.78
2017-10-21T17:25:23.386Z,855.77
2017-10-21T17:26:23.382Z,855.77
2017-10-21T17:27:23.369Z,855.74
2017-10-21T17:28:23.359Z,855.78
2017-10-21T17:29:23.355Z,855.79
2017-10-21T17:30:23.341Z,855.79
2017-10-21T17:31:23.330Z,855.78
2017-10-21T17:32:23.321Z,855.80
2017-10-21T17:33:23.313Z,855.77
2017-10-21T17:34:23.302Z,855.82
2017-10-21T17:35:23.291Z,855.81
2017-10-21T17:36:23.288Z,855.83
2017-10-21T17:37:23.274Z,855.85
2017-10-21T17:38:23.263Z,855.88
2017-10-21T17:39:23.252Z,855.90
2017-10-21T17:40:23.246Z,855.89
2017-10-21T17:41:23.234Z,855.91
2017-10-21T17:42:23.222Z,855.90
2017-10-21T17:43:23.213Z,855.89
2017-10-21T17:44:23.202Z,855.90
2017-10-21T17:45:23.198Z,855.88
2017-10-21T17:46:23.188Z,855.87
2017-10-21T17:47:23.181Z,855.84
2017-10-21T17:48:23.162Z,855.85
2017-10-21T17:49:23.155Z,855.87
2017-10-21T17:50:23.143Z,855.89
2017-10-21T17:51:23.141Z,855.87
2017-10-21T17:52:23.125Z,855.86
2017-10-21T17:53:23.124Z,855.84
2017-10-21T17:54:23.106Z,855.82
2017-10-21T17:55:23.103Z,855.85
2017-10-21T17:56:23.085Z,855.81
2017-10-21T17:57:23.076Z,855.80
2017-10-21T17:58:23.064Z,855.76
2017-10-21T17:59:23.063Z,855.76
2017-10-21T18:00:23.046Z,855.76
2017-10-21T18:01:23.041Z,855.77
2017-10-21T18:02:23.025Z,855.77
2017-10-21T18:03:23.016Z,855.77
2017-10-21T18:04:23.005Z,855.76
2017-10-21T18:05:22.997Z,855.74
2017-10-21T18:06:22.991Z,855.81
2017-10-21T18:07:22.981Z,855.79
2017-10-21T18:08:22.966Z,855.75
2017-10-21T18:09:22.961Z,855.78
2017-10-21T18:10:22.950Z,855.73
2017-10-21T18:11:22.935Z,855.74
2017-10-21T18:12:22.927Z,855.76
2017-10-21T18:13:22.915Z,855.75
2017-10-21T18:14:22.906Z,855.79
2017-10-21T18:15:22.894Z,855.73
2017-10-21T18:16:22.885Z,855.75
2017-10-21T18:17:22.877Z,855.72
2017-10-21T18:18:22.865Z,855.75
2017-10-21T18:19:22.856Z,855.73
2017-10-21T18:20:22.846Z,855.73
2017-10-21T18:21:22.842Z,855.78
2017-10-21T18:22:22.826Z,855.77
2017-10-21T18:23:22.815Z,855.78
2017-10-21T18:24:22.812Z,855.73
2017-10-21T18:25:22.808Z,855.76
2017-10-21T18:26:22.783Z,855.80
2017-10-21T18:27:22.774Z,855.75
2017-10-21T18:28:22.765Z,855.77
2017-10-21T18:29:22.754Z,855.81
2017-10-21T18:30:22.746Z,855.82
2017-10-21T18:31:22.737Z,855.82
2017-10-21T18:32:22.729Z,855.83
2017-10-21T18:33:22.715Z,855.79
2017-10-21T18:34:22.702Z,855.81
2017-10-21T18:35:22.692Z,855.76
2017-10-21T18:36:22.683Z,855.69
2017-10-21T18:37:22.677Z,855.64
2017-10-21T18:38:22.660Z,855.69
2017-10-21T18:39:22.658Z,855.68
2017-10-21T18:40:22.660Z,855.69
2017-10-21T18:41:22.631Z,855.70
2017-10-21T18:42:22.620Z,855.71
2017-10-21T18:43:22.610Z,855.68
2017-10-21T18:44:22.606Z,855.69
2017-10-21T18:45:22.590Z,855.71
2017-10-21T18:46:22.578Z,855.69
2017-10-21T18:47:22.569Z,855.75
2017-10-21T18:48:22.559Z,855.73
2017-10-21T18:49:22.556Z,855.75
2017-10-21T18:50:22.537Z,855.77
2017-10-21T18:51:22.527Z,855.76
2017-10-21T18:52:22.518Z,855.74
2017-10-21T18:53:22.512Z,855.75
2017-10-21T18:54:22.501Z,855.78
2017-10-21T18:55:22.497Z,855.77
2017-10-21T18:56:22.480Z,855.76
2017-10-21T18:57:22.485Z,855.78
2017-10-21T18:58:22.456Z,855.74
2017-10-21T18:59:22.441Z,855.72
2017-10-21T19:00:22.433Z,855.73
2017-10-21T19:01:22.423Z,855.76
2017-10-21T19:02:22.410Z,855.71
2017-10-21T19:03:22.400Z,855.69
2017-10-21T19:04:22.390Z,855.68
2017-10-21T19:05:22.385Z,855.65
2017-10-21T19:06:22.369Z,855.63
2017-10-21T19:07:22.359Z,855.63
2017-10-21T19:08:22.346Z,855.60
2017-10-21T19:09:22.343Z,855.56
2017-10-21T19:10:22.327Z,855.59
2017-10-21T19:11:22.315Z,855.57
2017-10-21T19:12:22.323Z,855.52
2017-10-21T19:13:22.297Z,855.51
2017-10-21T19:14:22.333Z,855.45
2017-10-21T19:15:22.278Z,855.44
2017-10-21T19:16:22.262Z,855.45
2017-10-21T19:17:22.252Z,855.45
2017-10-21T19:18:22.240Z,855.39
2017-10-21T19:19:22.234Z,855.45
2017-10-21T19:20:22.220Z,855.36
2017-10-21T19:21:22.208Z,855.38
2017-10-21T19:22:22.195Z,855.34
2017-10-21T19:23:22.190Z,855.35
2017-10-21T19:24:22.198Z,855.30
2017-10-21T19:25:22.165Z,855.27
2017-10-21T19:26:22.153Z,855.28
2017-10-21T19:27:22.142Z,855.30
2017-10-21T19:28:22.132Z,855.28
2017-10-21T19:29:22.121Z,855.30
2017-10-21T19:30:22.110Z,855.26
2017-10-21T19:31:22.099Z,855.23
2017-10-21T19:32:22.092Z,855.28
2017-10-21T19:33:22.078Z,855.24
2017-10-21T19:34:22.066Z,855.23
2017-10-21T19:35:22.060Z,855.23
2017-10-21T19:36:22.045Z,855.23
2017-10-21T19:37:22.031Z,855.22
2017-10-21T19:38:22.025Z,855.17
2017-10-21T19:39:22.012Z,855.17
2017-10-21T19:40:22.000Z,855.15
2017-10-21T19:41:21.993Z,855.13
2017-10-21T19:42:21.984Z,855.12
2017-10-21T19:43:21.966Z,855.10
2017-10-21T19:44:21.956Z,855.12
2017-10-21T19:45:21.946Z,855.10
2017-10-21T19:46:21.942Z,855.12
2017-10-21T19:47:21.926Z,855.13
2017-10-21T19:48:21.911Z,855.14
2017-10-21T19:49:21.901Z,855.14
2017-10-21T19:50:21.887Z,855.13
2017-10-21T19:51:21.879Z,855.12
2017-10-21T19:52:21.868Z,855.13
2017-10-21T19:53:21.856Z,855.12
2017-10-21T19:54:21.852Z,855.08
2017-10-21T19:55:21.832Z,855.10
2017-10-21T19:56:21.820Z,855.05
2017-10-21T19:57:21.813Z,855.02
2017-10-21T19:58:21.804Z,855.03
2017-10-21T19:59:21.787Z,855.02
2017-10-21T20:00:21.775Z,854.96
2017-10-21T20:01:21.763Z,854.99
2017-10-21T20:02:21.803Z,855.00
2017-10-21T20:03:21.740Z,854.99
2017-10-21T20:04:21.736Z,854.94
2017-10-21T20:05:21.718Z,854.99
2017-10-21T20:06:21.719Z,855.04
2017-10-21T20:07:21.696Z,855.03
2017-10-21T20:08:21.683Z,855.05
2017-10-21T20:09:21.673Z,855.08
2017-10-21T20:10:21.660Z,855.06
2017-10-21T20:11:21.650Z,855.09
2017-10-21T20:12:21.645Z,855.10
2017-10-21T20:13:21.632Z,855.11
2017-10-21T20:14:21.614Z,855.13
2017-10-21T20:15:21.607Z,855.08
2017-10-21T20:16:21.592Z,855.12
2017-10-21T20:17:21.579Z,855.11
2017-10-21T20:18:21.568Z,855.10
2017-10-21T20:19:21.557Z,855.11
2017-10-21T20:20:21.544Z,855.10
2017-10-21T20:21:21.540Z,855.13
2017-10-21T20:22:21.526Z,855.14
2017-10-21T20:23:21.515Z,855.16
2017-10-21T20:24:21.498Z,855.14
2017-10-21T20:25:21.500Z,855.17
2017-10-21T20:26:21.475Z,855.15
2017-10-21T20:27:21.461Z,855.15
2017-10-21T20:28:21.464Z,855.16
2017-10-21T20:29:21.463Z,855.19
2017-10-21T20:30:21.459Z,855.20
2017-10-21T20:31:21.421Z,855.21
2017-10-21T20:32:21.410Z,855.18
2017-10-21T20:33:21.398Z,855.21
2017-10-21T20:34:21.388Z,855.19
2017-10-21T20:35:21.369Z,855.20
2017-10-21T20:36:21.356Z,855.17
2017-10-21T20:37:21.349Z,855.19
2017-10-21T20:38:21.333Z,855.18
2017-10-21T20:39:21.321Z,855.18
2017-10-21T20:40:21.317Z,855.23
2017-10-21T20:41:21.304Z,855.22
2017-10-21T20:42:21.286Z,855.24
2017-10-21T20:43:21.275Z,855.25
2017-10-21T20:44:21.264Z,855.23
2017-10-21T20:45:21.252Z,855.26
2017-10-21T20:46:21.239Z,855.26
2017-10-21T20:47:21.228Z,855.26
2017-10-21T20:48:21.216Z,855.27
2017-10-21T20:49:21.206Z,855.29
2017-10-21T20:50:21.191Z,855.30
2017-10-21T20:51:21.179Z,855.29
2017-10-21T20:52:21.169Z,855.32
2017-10-21T20:53:21.156Z,855.33
2017-10-21T20:54:21.144Z,855.28
2017-10-21T20:55:21.132Z,855.30
2017-10-21T20:56:21.125Z,855.26
2017-10-21T20:57:21.111Z,855.23
2017-10-21T20:58:21.099Z,855.21
2017-10-21T20:59:21.084Z,855.18
2017-10-21T21:00:21.074Z,855.15
2017-10-21T21:01:21.067Z,855.20
2017-10-21T21:02:21.050Z,855.19
2017-10-21T21:03:21.040Z,855.23
2017-10-21T21:04:21.032Z,855.24
2017-10-21T21:05:21.015Z,855.26
2017-10-21T21:06:21.002Z,855.23
2017-10-21T21:07:20.996Z,855.23
2017-10-21T21:08:20.979Z,855.21
2017-10-21T21:09:20.972Z,855.26
2017-10-21T21:10:20.953Z,855.28
2017-10-21T21:11:20.941Z,855.34
2017-10-21T21:12:20.931Z,855.28
2017-10-21T21:13:20.923Z,855.28
2017-10-21T21:14:20.904Z,855.28
2017-10-21T21:15:20.891Z,855.29
2017-10-21T21:16:20.885Z,855.27
2017-10-21T21:17:20.870Z,855.25
2017-10-21T21:18:20.854Z,855.31
2017-10-21T21:19:20.843Z,855.30
2017-10-21T21:20:20.852Z,855.31
2017-10-21T21:21:20.818Z,855.31
2017-10-21T21:22:20.810Z,855.28
2017-10-21T21:23:20.794Z,855.30
2017-10-21T21:24:20.787Z,855.27
2017-10-21T21:25:20.769Z,855.30
2017-10-21T21:26:20.756Z,855.22
2017-10-21T21:27:20.745Z,855.29
2017-10-21T21:28:20.732Z,855.30
2017-10-21T21:29:20.725Z,855.28
2017-10-21T21:30:20.710Z,855.29
2017-10-21T21:31:20.693Z,855.34
2017-10-21T21:32:20.688Z,855.36
2017-10-21T21:33:20.671Z,855.42
2017-10-21T21:34:20.859Z,855.47
2017-10-21T21:35:20.649Z,855.48
2017-10-21T21:36:20.639Z,855.49
2017-10-21T21:37:20.619Z,855.51
2017-10-21T21:38:20.607Z,855.49
2017-10-21T21:39:20.596Z,855.55
2017-10-21T21:40:20.583Z,855.55
2017-10-21T21:41:20.575Z,855.58
2017-10-21T21:42:20.557Z,855.58
2017-10-21T21:43:20.544Z,855.60
2017-10-21T21:44:20.534Z,855.64
2017-10-21T21:45:20.523Z,855.65
2017-10-21T21:46:20.509Z,855.69
2017-10-21T21:47:20.497Z,855.69
2017-10-21T21:48:20.483Z,855.70
2017-10-21T21:49:20.473Z,855.73
2017-10-21T21:50:20.459Z,855.72
2017-10-21T21:51:20.445Z,855.69
2017-10-21T21:52:20.437Z,855.74
2017-10-21T21:53:20.431Z,855.74
2017-10-21T21:54:20.415Z,855.73
2017-10-21T21:55:20.397Z,855.74
2017-10-21T21:56:20.386Z,855.73
2017-10-21T21:57:20.377Z,855.75
2017-10-21T21:58:20.365Z,855.74
2017-10-21T21:59:20.349Z,855.74
2017-10-21T22:00:20.337Z,855.80
2017-10-21T22:01:20.324Z,855.80
2017-10-21T22:02:20.317Z,855.80
2017-10-21T22:03:20.301Z,855.84
2017-10-21T22:04:20.287Z,855.81
2017-10-21T22:05:20.290Z,855.85
2017-10-21T22:06:20.264Z,855.82
2017-10-21T22:07:20.251Z,855.80
2017-10-21T22:08:20.238Z,855.74
2017-10-21T22:09:20.239Z,855.75
2017-10-21T22:10:20.215Z,855.73
2017-10-21T22:11:20.201Z,855.67
2017-10-21T22:12:20.191Z,855.63
2017-10-21T22:13:20.179Z,855.63
2017-10-21T22:14:20.167Z,855.61
2017-10-21T22:15:20.155Z,855.58
2017-10-21T22:16:20.144Z,855.55
2017-10-21T22:17:20.137Z,855.49
2017-10-21T22:18:20.119Z,855.49
2017-10-21T22:19:20.111Z,855.45